createdAt,value
2019-01-26T00:00:47.583Z,98897.00
2019-01-26T00:03:23.375Z,98892.00
2019-01-26T00:05:54.387Z,98885.00
2019-01-26T00:08:25.854Z,98878.00
2019-01-26T00:10:58.550Z,98869.00
2019-01-26T00:13:30.477Z,98867.00
2019-01-26T00:16:04.710Z,98862.00
2019-01-26T00:18:35.472Z,98856.00
2019-01-26T00:21:09.132Z,98850.00
2019-01-26T00:23:42.612Z,98840.00
2019-01-26T00:26:15.642Z,98829.00
2019-01-26T00:28:48.650Z,98817.00
2019-01-26T00:31:19.450Z,98809.00
2019-01-26T00:33:50.288Z,98813.00
2019-01-26T00:36:21.137Z,98812.00
2019-01-26T00:38:53.470Z,98804.00
2019-01-26T00:41:24.602Z,98799.00
2019-01-26T00:43:56.113Z,98793.00
2019-01-26T00:46:28.453Z,98770.00
2019-01-26T00:48:58.820Z,98767.00
2019-01-26T00:51:29.397Z,98753.00
2019-01-26T00:53:59.875Z,98753.00
2019-01-26T00:56:30.362Z,98749.00
2019-01-26T00:59:00.912Z,98739.00
2019-01-26T01:01:31.474Z,98727.00
2019-01-26T01:04:02.006Z,98714.00
2019-01-26T01:06:32.652Z,98710.00
2019-01-26T01:09:04.560Z,98713.00
2019-01-26T01:11:35.098Z,98722.00
2019-01-26T01:14:05.943Z,98703.00
2019-01-26T01:16:36.458Z,98697.00
2019-01-26T01:19:06.944Z,98688.00
2019-01-26T01:21:37.803Z,98701.00
2019-01-26T01:24:08.283Z,98692.00
2019-01-26T01:26:38.765Z,98682.00
2019-01-26T01:29:09.256Z,98681.00
2019-01-26T01:31:39.726Z,98667.00
2019-01-26T01:34:11.961Z,98660.00
2019-01-26T01:36:42.506Z,98666.00
2019-01-26T01:39:12.997Z,98664.00
2019-01-26T01:41:43.461Z,98656.00
2019-01-26T01:44:13.965Z,98657.00
2019-01-26T01:46:44.465Z,98650.00
2019-01-26T01:49:14.946Z,98638.00
2019-01-26T01:51:45.519Z,98631.00
2019-01-26T01:54:16.018Z,98632.00
2019-01-26T01:56:46.481Z,98636.00
2019-01-26T01:59:17.014Z,98630.00
2019-01-26T02:01:47.481Z,98607.00
2019-01-26T02:04:18.005Z,98609.00
2019-01-26T02:06:48.491Z,98615.00
2019-01-26T02:09:19.040Z,98614.00
2019-01-26T02:11:49.525Z,98613.00
2019-01-26T02:14:20.002Z,98608.00
2019-01-26T02:16:50.577Z,98600.00
2019-01-26T02:19:21.024Z,98602.00
2019-01-26T02:21:51.500Z,98601.00
2019-01-26T02:24:21.980Z,98597.00
2019-01-26T02:26:52.476Z,98598.00
2019-01-26T02:29:22.952Z,98591.00
2019-01-26T02:31:53.422Z,98594.00
2019-01-26T02:34:23.843Z,98575.00
2019-01-26T02:36:54.319Z,98587.00
2019-01-26T02:39:24.777Z,98569.00
2019-01-26T02:41:55.281Z,98579.00
2019-01-26T02:44:25.727Z,98565.00
2019-01-26T02:46:58.132Z,98561.00
2019-01-26T02:49:28.404Z,98560.00
2019-01-26T02:51:58.869Z,98560.00
2019-01-26T02:54:29.315Z,98554.00
2019-01-26T02:56:59.770Z,98555.00
2019-01-26T02:59:30.210Z,98543.00
2019-01-26T03:02:00.707Z,98540.00
2019-01-26T03:04:31.218Z,98535.00
2019-01-26T03:07:01.707Z,98548.00
2019-01-26T03:09:32.182Z,98531.00
2019-01-26T03:12:02.738Z,98530.00
2019-01-26T03:14:33.192Z,98525.00
2019-01-26T03:17:06.336Z,98526.00
2019-01-26T03:19:36.033Z,98507.00
2019-01-26T03:22:06.534Z,98509.00
2019-01-26T03:24:37.031Z,98507.00
2019-01-26T03:27:07.530Z,98503.00
2019-01-26T03:29:38.074Z,98495.00
2019-01-26T03:32:08.607Z,98489.00
2019-01-26T03:34:39.109Z,98491.00
2019-01-26T03:37:09.563Z,98493.00
2019-01-26T03:39:40.083Z,98489.00
2019-01-26T03:42:10.552Z,98494.00
2019-01-26T03:44:41.006Z,98485.00
2019-01-26T03:47:13.716Z,98485.00
2019-01-26T03:49:43.882Z,98486.00
2019-01-26T03:52:14.379Z,98494.00
2019-01-26T03:54:44.888Z,98487.00
2019-01-26T03:57:15.422Z,98487.00
2019-01-26T03:59:46.002Z,98484.00
2019-01-26T04:02:16.523Z,98472.00
2019-01-26T04:04:47.101Z,98468.00
2019-01-26T04:07:17.618Z,98475.00
2019-01-26T04:09:48.106Z,98466.00
2019-01-26T04:12:18.602Z,98475.00
2019-01-26T04:14:49.147Z,98474.00
2019-01-26T04:17:21.930Z,98475.00
2019-01-26T04:19:52.088Z,98472.00
2019-01-26T04:22:22.654Z,98473.00
2019-01-26T04:25:12.463Z,98479.00
2019-01-26T04:27:42.957Z,98461.00
2019-01-26T04:30:23.975Z,98454.00
2019-01-26T04:32:54.457Z,98449.00
2019-01-26T04:35:24.956Z,98449.00
2019-01-26T04:37:55.475Z,98458.00
2019-01-26T04:40:26.077Z,98455.00
2019-01-26T04:42:56.646Z,98448.00
2019-01-26T04:45:27.234Z,98433.00
2019-01-26T04:47:57.839Z,98440.00
2019-01-26T04:50:28.396Z,98436.00
2019-01-26T04:52:58.903Z,98445.00
2019-01-26T04:55:29.450Z,98440.00
2019-01-26T04:57:59.938Z,98435.00
2019-01-26T05:00:30.787Z,98446.00
2019-01-26T05:03:01.326Z,98451.00
2019-01-26T05:05:31.866Z,98457.00
2019-01-26T05:08:02.404Z,98461.00
2019-01-26T05:10:32.951Z,98451.00
2019-01-26T05:13:03.684Z,98450.00
2019-01-26T05:15:34.198Z,98436.00
2019-01-26T05:18:04.699Z,98458.00
2019-01-26T05:20:35.211Z,98456.00
2019-01-26T05:23:05.767Z,98461.00
2019-01-26T05:25:36.388Z,98464.00
2019-01-26T05:28:06.988Z,98454.00
2019-01-26T05:30:37.532Z,98452.00
2019-01-26T05:33:08.124Z,98445.00
2019-01-26T05:35:38.721Z,98461.00
2019-01-26T05:38:09.304Z,98464.00
2019-01-26T05:40:40.025Z,98470.00
2019-01-26T05:43:10.887Z,98472.00
2019-01-26T05:45:41.458Z,98458.00
2019-01-26T05:48:12.175Z,98457.00
2019-01-26T05:50:43.092Z,98449.00
2019-01-26T05:53:13.803Z,98457.00
2019-01-26T05:55:44.522Z,98457.00
2019-01-26T05:58:15.281Z,98463.00
2019-01-26T06:00:46.024Z,98471.00
2019-01-26T06:03:16.810Z,98463.00
2019-01-26T06:05:48.000Z,98450.00
2019-01-26T06:08:20.538Z,98464.00
2019-01-26T06:10:51.234Z,98470.00
2019-01-26T06:13:21.930Z,98463.00
2019-01-26T06:15:52.686Z,98473.00
2019-01-26T06:18:23.181Z,98463.00
2019-01-26T06:20:53.830Z,98463.00
2019-01-26T06:23:24.378Z,98451.00
2019-01-26T06:25:54.910Z,98450.00
2019-01-26T06:28:25.395Z,98461.00
2019-01-26T06:30:55.959Z,98456.00
2019-01-26T06:33:26.474Z,98434.00
2019-01-26T06:35:56.979Z,98452.00
2019-01-26T06:38:27.548Z,98443.00
2019-01-26T06:41:02.396Z,98467.00
2019-01-26T06:43:32.838Z,98449.00
2019-01-26T06:46:04.318Z,98445.00
2019-01-26T06:48:34.792Z,98459.00
2019-01-26T06:51:05.434Z,98454.00
2019-01-26T06:53:35.938Z,98446.00
2019-01-26T06:56:06.446Z,98454.00
2019-01-26T06:58:36.870Z,98448.00
2019-01-26T07:01:07.531Z,98442.00
2019-01-26T07:03:38.015Z,98454.00
2019-01-26T07:06:30.206Z,98452.00
2019-01-26T07:09:00.651Z,98455.00
2019-01-26T07:11:31.103Z,98459.00
2019-01-26T07:14:01.570Z,98450.00
2019-01-26T07:16:32.429Z,98456.00
2019-01-26T07:19:02.884Z,98458.00
2019-01-26T07:21:33.592Z,98462.00
2019-01-26T07:24:04.022Z,98464.00
2019-01-26T07:26:34.632Z,98462.00
2019-01-26T07:29:05.103Z,98464.00
2019-01-26T07:31:35.774Z,98461.00
2019-01-26T07:34:06.432Z,98469.00
2019-01-26T07:36:36.937Z,98461.00
2019-01-26T07:39:10.234Z,98464.00
2019-01-26T07:41:40.938Z,98458.00
2019-01-26T07:44:11.451Z,98460.00
2019-01-26T07:46:42.677Z,98467.00
2019-01-26T07:49:13.170Z,98465.00
2019-01-26T07:51:43.797Z,98466.00
2019-01-26T07:54:16.467Z,98457.00
2019-01-26T07:56:47.785Z,98459.00
2019-01-26T07:59:18.322Z,98431.00
2019-01-26T08:01:50.927Z,98458.00
2019-01-26T08:04:21.375Z,98454.00
2019-01-26T08:06:54.332Z,98450.00
2019-01-26T08:09:25.313Z,98450.00
2019-01-26T08:11:58.802Z,98447.00
2019-01-26T08:14:29.281Z,98461.00
2019-01-26T08:16:59.747Z,98451.00
2019-01-26T08:19:30.247Z,98453.00
2019-01-26T08:22:00.707Z,98449.00
2019-01-26T08:24:31.366Z,98358.00
2019-01-26T08:27:01.870Z,98442.00
2019-01-26T08:29:32.348Z,98441.00
2019-01-26T08:32:02.877Z,98433.00
2019-01-26T08:34:33.371Z,98438.00
2019-01-26T08:37:03.899Z,98440.00
2019-01-26T08:39:34.404Z,98438.00
2019-01-26T08:42:04.974Z,98438.00
2019-01-26T08:44:35.440Z,98434.00
2019-01-26T08:47:06.400Z,98431.00
2019-01-26T08:49:36.936Z,98438.00
2019-01-26T08:52:07.434Z,98441.00
2019-01-26T08:54:38.063Z,98439.00
2019-01-26T08:57:08.606Z,98449.00
2019-01-26T08:59:39.254Z,98450.00
2019-01-26T09:02:38.468Z,98447.00
2019-01-26T09:05:11.091Z,98444.00
2019-01-26T09:07:41.569Z,98448.00
2019-01-26T09:10:12.078Z,98445.00
2019-01-26T09:12:42.618Z,98431.00
2019-01-26T09:15:13.437Z,98422.00
2019-01-26T09:17:44.010Z,98421.00
2019-01-26T09:20:14.803Z,98421.00
2019-01-26T09:22:45.335Z,98416.00
2019-01-26T09:25:15.809Z,98408.00
2019-01-26T09:27:46.937Z,98405.00
2019-01-26T09:30:17.970Z,98410.00
2019-01-26T09:32:48.820Z,98407.00
2019-01-26T09:35:19.293Z,98392.00
2019-01-26T09:37:49.919Z,98400.00
2019-01-26T09:40:20.690Z,98406.00
2019-01-26T09:42:51.230Z,98407.00
2019-01-26T09:45:22.051Z,98406.00
2019-01-26T09:47:52.984Z,98403.00
2019-01-26T09:50:23.761Z,98397.00
2019-01-26T09:52:54.338Z,98408.00
2019-01-26T09:55:24.809Z,98412.00
2019-01-26T09:57:55.391Z,98414.00
2019-01-26T10:00:25.982Z,98403.00
2019-01-26T10:02:56.483Z,98414.00
2019-01-26T10:05:27.760Z,98405.00
2019-01-26T10:07:58.403Z,98410.00
2019-01-26T10:10:28.922Z,98404.00
2019-01-26T10:12:59.363Z,98408.00
2019-01-26T10:15:30.699Z,98396.00
2019-01-26T10:18:01.184Z,98395.00
2019-01-26T10:20:34.021Z,98397.00
2019-01-26T10:23:05.125Z,98391.00
2019-01-26T10:25:35.753Z,98390.00
2019-01-26T10:28:06.949Z,98384.00
2019-01-26T10:30:52.875Z,98377.00
2019-01-26T10:33:23.454Z,98382.00
2019-01-26T10:36:12.814Z,98374.00
2019-01-26T10:38:48.654Z,98372.00
2019-01-26T10:41:41.070Z,98364.00
2019-01-26T10:44:15.295Z,98370.00
2019-01-26T10:46:45.813Z,98372.00
2019-01-26T10:49:18.448Z,98371.00
2019-01-26T10:51:48.957Z,98358.00
2019-01-26T10:54:19.468Z,98359.00
2019-01-26T10:56:49.933Z,98357.00
2019-01-26T10:59:20.476Z,98347.00
2019-01-26T11:01:51.066Z,98349.00
2019-01-26T11:04:21.720Z,98351.00
2019-01-26T11:06:52.160Z,98344.00
2019-01-26T11:09:22.940Z,98341.00
2019-01-26T11:11:53.415Z,98350.00
2019-01-26T11:14:23.887Z,98344.00
2019-01-26T11:16:54.359Z,98341.00
2019-01-26T11:19:24.864Z,98337.00
2019-01-26T11:21:56.685Z,98334.00
2019-01-26T11:24:28.582Z,98331.00
2019-01-26T11:27:00.311Z,98332.00
2019-01-26T11:29:30.833Z,98323.00
2019-01-26T11:32:01.707Z,98325.00
2019-01-26T11:34:32.331Z,98322.00
2019-01-26T11:37:02.775Z,98317.00
2019-01-26T11:39:33.384Z,98310.00
2019-01-26T11:42:03.846Z,98321.00
2019-01-26T11:44:34.349Z,98311.00
2019-01-26T11:47:07.570Z,98310.00
2019-01-26T11:49:39.685Z,98304.00
2019-01-26T11:52:11.012Z,98301.00
2019-01-26T11:55:11.105Z,98289.00
2019-01-26T11:57:41.572Z,98288.00
2019-01-26T12:00:46.171Z,98292.00
2019-01-26T12:03:38.675Z,98283.00
2019-01-26T12:06:13.191Z,98283.00
2019-01-26T12:08:43.716Z,98271.00
2019-01-26T12:11:16.481Z,98272.00
2019-01-26T12:13:47.040Z,98258.00
2019-01-26T12:16:17.644Z,98267.00
2019-01-26T12:18:48.223Z,98263.00
2019-01-26T12:21:18.698Z,98265.00
2019-01-26T12:23:50.568Z,98269.00
2019-01-26T12:26:40.173Z,98201.00
2019-01-26T12:29:10.663Z,98259.00
2019-01-26T12:31:43.424Z,98255.00
2019-01-26T12:34:13.915Z,98265.00
2019-01-26T12:36:44.754Z,98258.00
2019-01-26T12:39:15.358Z,98253.00
2019-01-26T12:41:46.010Z,98252.00
2019-01-26T12:44:17.839Z,98253.00
2019-01-26T12:46:48.413Z,98250.00
2019-01-26T12:49:18.924Z,98257.00
2019-01-26T12:51:49.451Z,98250.00
2019-01-26T12:54:20.071Z,98248.00
2019-01-26T12:56:50.663Z,98246.00
2019-01-26T12:59:22.225Z,98251.00
2019-01-26T13:01:52.819Z,98254.00
2019-01-26T13:04:23.611Z,98245.00
2019-01-26T13:06:54.287Z,98244.00
2019-01-26T13:09:25.604Z,98251.00
2019-01-26T13:11:56.251Z,98248.00
2019-01-26T13:14:27.659Z,98248.00
2019-01-26T13:16:58.128Z,98238.00
2019-01-26T13:19:36.791Z,98234.00
2019-01-26T13:22:03.220Z,98249.00
2019-01-26T13:24:33.775Z,98241.00
2019-01-26T13:27:04.345Z,98232.00
2019-01-26T13:29:35.639Z,98241.00
2019-01-26T13:32:08.411Z,98239.00
2019-01-26T13:34:39.261Z,98223.00
2019-01-26T13:37:09.773Z,98231.00
2019-01-26T13:39:40.824Z,98230.00
2019-01-26T13:42:12.852Z,98222.00
2019-01-26T13:44:44.382Z,98231.00
2019-01-26T13:47:14.958Z,98226.00
2019-01-26T13:49:46.052Z,98221.00
2019-01-26T13:52:17.194Z,98219.00
2019-01-26T13:54:48.992Z,98222.00
2019-01-26T13:57:19.804Z,98218.00
2019-01-26T13:59:50.510Z,98229.00
2019-01-26T14:02:21.674Z,98227.00
2019-01-26T14:04:53.601Z,98232.00
2019-01-26T14:07:24.711Z,98229.00
2019-01-26T14:09:55.299Z,98235.00
2019-01-26T14:12:28.686Z,98236.00
2019-01-26T14:14:59.496Z,98233.00
2019-01-26T14:17:32.102Z,98228.00
2019-01-26T14:20:02.605Z,98240.00
2019-01-26T14:22:33.457Z,98232.00
2019-01-26T14:25:05.028Z,98229.00
2019-01-26T14:27:35.785Z,98230.00
2019-01-26T14:30:18.872Z,98235.00
2019-01-26T14:32:52.708Z,98238.00
2019-01-26T14:35:22.106Z,98238.00
2019-01-26T14:37:53.864Z,98235.00
2019-01-26T14:40:26.322Z,98238.00
2019-01-26T14:42:56.896Z,98237.00
2019-01-26T14:45:29.200Z,98243.00
2019-01-26T14:47:59.776Z,98240.00
2019-01-26T14:50:31.522Z,98239.00
2019-01-26T14:53:03.287Z,98236.00
2019-01-26T14:55:33.945Z,98237.00
2019-01-26T14:58:04.607Z,98238.00
2019-01-26T15:00:35.979Z,98242.00
2019-01-26T15:03:06.666Z,98240.00
2019-01-26T15:05:37.323Z,98238.00
2019-01-26T15:08:07.947Z,98243.00
2019-01-26T15:10:39.682Z,98244.00
2019-01-26T15:13:31.386Z,98238.00
2019-01-26T15:16:04.791Z,98240.00
2019-01-26T15:18:36.345Z,98237.00
2019-01-26T15:21:07.486Z,98234.00
2019-01-26T15:23:38.843Z,98242.00
2019-01-26T15:26:11.004Z,98232.00
2019-01-26T15:28:45.448Z,98238.00
2019-01-26T15:31:17.214Z,98237.00
2019-01-26T15:33:48.083Z,98239.00
2019-01-26T15:36:19.066Z,98240.00
2019-01-26T15:38:50.821Z,98245.00
2019-01-26T15:41:21.812Z,98243.00
2019-01-26T15:43:54.129Z,98239.00
2019-01-26T15:46:24.719Z,98246.00
2019-01-26T15:48:55.204Z,98250.00
2019-01-26T15:51:25.964Z,98233.00
2019-01-26T15:54:00.100Z,98238.00
2019-01-26T15:56:31.001Z,98236.00
2019-01-26T15:59:02.765Z,98238.00
2019-01-26T16:01:35.156Z,98237.00
2019-01-26T16:04:07.451Z,98244.00
2019-01-26T16:06:39.252Z,98241.00
2019-01-26T16:09:10.747Z,98243.00
2019-01-26T16:11:41.543Z,98238.00
2019-01-26T16:14:12.481Z,98246.00
2019-01-26T16:16:43.454Z,98242.00
2019-01-26T16:19:15.021Z,98244.00
2019-01-26T16:21:46.055Z,98235.00
2019-01-26T16:24:18.362Z,98247.00
2019-01-26T16:26:55.160Z,98242.00
2019-01-26T16:29:27.753Z,98250.00
2019-01-26T16:32:00.680Z,98245.00
2019-01-26T16:34:32.846Z,98240.00
2019-01-26T16:37:05.445Z,98246.00
2019-01-26T16:39:37.173Z,98242.00
2019-01-26T16:42:15.757Z,98241.00
2019-01-26T16:44:46.307Z,98233.00
2019-01-26T16:47:16.801Z,98241.00
2019-01-26T16:49:47.318Z,98251.00
2019-01-26T16:52:17.886Z,98236.00
2019-01-26T16:54:49.197Z,98248.00
2019-01-26T16:57:23.680Z,98235.00
2019-01-26T16:59:54.215Z,98237.00
2019-01-26T17:02:24.726Z,98241.00
2019-01-26T17:04:55.314Z,98243.00
2019-01-26T17:07:26.770Z,98246.00
2019-01-26T17:09:57.481Z,98237.00
2019-01-26T17:12:28.102Z,98239.00
2019-01-26T17:15:00.869Z,98237.00
2019-01-26T17:17:32.513Z,98246.00
2019-01-26T17:20:06.047Z,98247.00
2019-01-26T17:22:36.646Z,98245.00
2019-01-26T17:25:10.829Z,98239.00
2019-01-26T17:27:42.314Z,98234.00
2019-01-26T17:30:17.436Z,98235.00
2019-01-26T17:32:48.025Z,98237.00
2019-01-26T17:35:18.692Z,98238.00
2019-01-26T17:37:49.250Z,98244.00
2019-01-26T17:40:23.599Z,98246.00
2019-01-26T17:42:56.210Z,98243.00
2019-01-26T17:45:26.763Z,98246.00
2019-01-26T17:47:57.320Z,98237.00
2019-01-26T17:50:28.388Z,98239.00
2019-01-26T17:52:59.136Z,98238.00
2019-01-26T17:55:32.857Z,98234.00
2019-01-26T17:58:03.436Z,98242.00
2019-01-26T18:00:46.968Z,98239.00
2019-01-26T18:03:18.998Z,98229.00
2019-01-26T18:05:49.550Z,98235.00
2019-01-26T18:08:20.125Z,98223.00
2019-01-26T18:10:51.093Z,98217.00
2019-01-26T18:13:22.037Z,98218.00
2019-01-26T18:15:52.544Z,98217.00
2019-01-26T18:18:23.993Z,98225.00
2019-01-26T18:20:54.495Z,98225.00
2019-01-26T18:23:29.128Z,98220.00
2019-01-26T18:26:02.036Z,98221.00
2019-01-26T18:28:35.458Z,98216.00
2019-01-26T18:31:06.031Z,98216.00
2019-01-26T18:33:37.502Z,98218.00
2019-01-26T18:36:08.111Z,98212.00
2019-01-26T18:38:38.664Z,98221.00
2019-01-26T18:41:09.863Z,98211.00
2019-01-26T18:43:44.429Z,98219.00
2019-01-26T18:46:16.191Z,98214.00
2019-01-26T18:48:46.671Z,98209.00
2019-01-26T18:51:17.290Z,98209.00
2019-01-26T18:53:47.913Z,98210.00
2019-01-26T18:56:18.762Z,98208.00
2019-01-26T18:58:50.379Z,98203.00
2019-01-26T19:01:21.749Z,98205.00
2019-01-26T19:04:30.446Z,98207.00
2019-01-26T19:07:01.031Z,98195.00
2019-01-26T19:09:31.658Z,98195.00
2019-01-26T19:12:05.027Z,98188.00
2019-01-26T19:14:40.415Z,98192.00
2019-01-26T19:17:12.085Z,98184.00
2019-01-26T19:19:44.130Z,98186.00
2019-01-26T19:22:17.742Z,98186.00
2019-01-26T19:24:48.311Z,98176.00
2019-01-26T19:27:18.912Z,98185.00
2019-01-26T19:29:56.770Z,98170.00
2019-01-26T19:32:27.391Z,98173.00
2019-01-26T19:34:57.999Z,98167.00
2019-01-26T19:37:28.507Z,98170.00
2019-01-26T19:40:03.157Z,98174.00
2019-01-26T19:42:34.040Z,98171.00
2019-01-26T19:45:13.036Z,98168.00
2019-01-26T19:47:43.617Z,98171.00
2019-01-26T19:50:18.281Z,98168.00
2019-01-26T19:52:49.100Z,98171.00
2019-01-26T19:55:20.765Z,98165.00
2019-01-26T19:57:51.403Z,98169.00
2019-01-26T20:00:22.120Z,98165.00
2019-01-26T20:02:52.701Z,98165.00
2019-01-26T20:05:23.453Z,98163.00
2019-01-26T20:07:56.825Z,98156.00
2019-01-26T20:10:27.387Z,98164.00
2019-01-26T20:12:58.229Z,98161.00
2019-01-26T20:15:29.253Z,98156.00
2019-01-26T20:18:00.120Z,98150.00
2019-01-26T20:20:33.497Z,98154.00
2019-01-26T20:23:04.124Z,98157.00
2019-01-26T20:25:34.728Z,98162.00
2019-01-26T20:28:08.472Z,98151.00
2019-01-26T20:30:46.972Z,98154.00
2019-01-26T20:33:17.576Z,98156.00
2019-01-26T20:35:48.025Z,98155.00
2019-01-26T20:38:18.550Z,98162.00
2019-01-26T20:40:50.830Z,98156.00
2019-01-26T20:43:23.866Z,98152.00
2019-01-26T20:45:54.375Z,98146.00
2019-01-26T20:48:24.857Z,98131.00
2019-01-26T20:50:55.838Z,98148.00
2019-01-26T20:53:31.833Z,98133.00
2019-01-26T20:56:07.473Z,98132.00
2019-01-26T20:58:38.426Z,98128.00
2019-01-26T21:01:08.980Z,98131.00
2019-01-26T21:03:39.540Z,98130.00
2019-01-26T21:06:11.496Z,98123.00
2019-01-26T21:08:42.821Z,98122.00
2019-01-26T21:11:18.776Z,98123.00
2019-01-26T21:13:54.333Z,98113.00
2019-01-26T21:16:25.903Z,98114.00
2019-01-26T21:18:56.721Z,98111.00
2019-01-26T21:21:31.999Z,98109.00
2019-01-26T21:24:01.893Z,98104.00
2019-01-26T21:26:32.342Z,98103.00
2019-01-26T21:29:02.889Z,98098.00
2019-01-26T21:31:33.469Z,98103.00
2019-01-26T21:34:06.097Z,98102.00
2019-01-26T21:36:37.479Z,98096.00
2019-01-26T21:39:10.121Z,98101.00
2019-01-26T21:41:40.975Z,98102.00
2019-01-26T21:44:17.198Z,98090.00
2019-01-26T21:46:47.642Z,98086.00
2019-01-26T21:49:21.201Z,98097.00
2019-01-26T21:51:53.492Z,98089.00
2019-01-26T21:54:25.779Z,98082.00
2019-01-26T21:56:58.356Z,98083.00
2019-01-26T21:59:30.028Z,98078.00
2019-01-26T22:02:00.587Z,98075.00
2019-01-26T22:04:31.397Z,98078.00
2019-01-26T22:07:03.713Z,98072.00
2019-01-26T22:09:34.188Z,98069.00
2019-01-26T22:12:08.773Z,98056.00
2019-01-26T22:14:40.489Z,98064.00
2019-01-26T22:17:10.952Z,98061.00
2019-01-26T22:19:45.712Z,98049.00
2019-01-26T22:22:16.177Z,98050.00
2019-01-26T22:24:47.471Z,98049.00
2019-01-26T22:27:17.896Z,98047.00
2019-01-26T22:29:49.907Z,98037.00
2019-01-26T22:32:20.767Z,98036.00
2019-01-26T22:34:51.257Z,98034.00
2019-01-26T22:37:21.826Z,98032.00
2019-01-26T22:39:52.733Z,98033.00
2019-01-26T22:42:23.214Z,98036.00
2019-01-26T22:44:56.117Z,98029.00
2019-01-26T22:47:26.757Z,98026.00
2019-01-26T22:49:59.078Z,98024.00
2019-01-26T22:52:31.868Z,98024.00
2019-01-26T22:55:03.979Z,98033.00
2019-01-26T22:57:35.395Z,98010.00
2019-01-26T23:00:47.403Z,98005.00
2019-01-26T23:03:18.496Z,98007.00
2019-01-26T23:06:15.991Z,98002.00
2019-01-26T23:08:49.174Z,98005.00
2019-01-26T23:11:58.162Z,97997.00
2019-01-26T23:15:29.618Z,97994.00
2019-01-26T23:18:45.433Z,97995.00
2019-01-26T23:22:24.317Z,97987.00
2019-01-26T23:25:49.782Z,97981.00
2019-01-26T23:29:21.860Z,97978.00
2019-01-26T23:31:52.580Z,97967.00
2019-01-26T23:34:23.356Z,97966.00
2019-01-26T23:36:54.194Z,97959.00
2019-01-26T23:39:25.039Z,97958.00
2019-01-26T23:41:56.082Z,97949.00
2019-01-26T23:44:26.625Z,97948.00
2019-01-26T23:46:57.492Z,97937.00
2019-01-26T23:49:27.970Z,97934.00
2019-01-26T23:51:58.481Z,97932.00
2019-01-26T23:54:30.448Z,97916.00
2019-01-26T23:57:01.017Z,97915.00
2019-01-26T23:59:31.343Z,97918.00
